• Join FlightAware (Why Join?)
  • Login
  • US Flag 
07:34PM EDT


 

Airport Tracker/Info


-or-


 

Live Flight TrackerFlight Track Log ✈ KAP46 ✈ 2013年 09月 28日 ✈ KMSS - KALB

Flight Track Log - Related Links

Times and Time Zones

All times are in EDT time to prevent confusion due to time zone crossing. See the KAP46 flight status page for this flight to view local times or setup timezone preferences in your user account.

Time Position Orientation Groundspeed Altitude Reporting Facility
EDT Latitude Longitude Course Direction KTS MPH feet Rate Location/Type
07:37AM 44.6694 -74.7489 168° South 150 173 5,400  Level Boston Center
07:38AM 44.6364 -74.7389 168° South 144 166 5,900 420 Climbing Boston Center
07:39AM 44.5969 -74.7258 167° South 144 166 6,300 360 Climbing Boston Center
07:40AM 44.5619 -74.7039 156° South 144 166 6,700 360 Climbing Boston Center
07:41AM 44.5269 -74.6822 156° South 144 166 7,100 360 Climbing Boston Center
07:42AM 44.4878 -74.6633 161° South 149 171 7,500 240 Climbing Boston Center
07:43AM 44.4486 -74.6444 161° South 149 171 7,600  Climbing Boston Center
07:44AM 44.4053 -74.6194 158° South 155 178 7,600 -60 Level Boston Center
07:45AM 44.3600 -74.5975 161° South 167 192 7,500  Descending Boston Center
07:46AM 44.3164 -74.5786 163° South 167 192 7,600  Climbing Boston Center
07:47AM 44.2753 -74.5567 159° South 167 192 7,600 -60 Level Boston Center
07:48AM 44.2319 -74.5350 160° South 161 185 7,500 -60 Descending Boston Center
07:49AM 44.1906 -74.5133 159° South 166 191 7,500  Level Boston Center
07:50AM 44.1492 -74.4914 159° South 166 191 7,500  Level Boston Center
07:51AM 44.1078 -74.4728 162° South 161 185 7,500  Level Boston Center
07:52AM 44.0667 -74.4511 159° South 161 185 7,500  Level Boston Center
07:53AM 44.0275 -74.4294 158° South 161 185 7,500  Level Boston Center
07:54AM 43.9861 -74.4108 162° South 161 185 7,500  Level Boston Center
07:55AM 43.9428 -74.3892 160° South 161 185 7,500  Level Boston Center
07:56AM 43.9014 -74.3706 162° South 161 185 7,500  Level Boston Center
07:57AM 43.8600 -74.3492 160° South 166 191 7,500  Level Boston Center
07:58AM 43.8186 -74.3278 160° South 166 191 7,500  Level Boston Center
07:59AM 43.7772 -74.3092 162° South 166 191 7,500  Level Boston Center
08:00AM 43.7381 -74.2878 158° South 166 191 7,500  Level Boston Center
08:01AM 43.6906 -74.2633 160° South 166 191 7,500  Level Boston Center
08:02AM 43.6469 -74.2419 160° South 166 191 7,500  Level Boston Center
08:03AM 43.6078 -74.2236 161° South 166 191 7,500  Level Boston Center
08:04AM 43.5644 -74.2022 160° South 166 191 7,500  Level Boston Center
08:05AM 43.5250 -74.1811 159° South 161 185 7,500  Level Boston Center
08:06AM 43.4836 -74.1628 162° South 161 185 7,500  Level Boston Center
08:07AM 43.4650 -74.1536 160° South 161 185 7,500  Level Boston Center
08:07AM 43.4403 -74.1414 160° South 161 185 7,500  Level Boston Center
08:07AM 43.4339 -74.1383 161° South 160 184 7,500  Level Boston Center
08:08AM 43.3989 -74.1231 162° South 161 185 7,500  Level Boston Center
08:08AM 43.3906 -74.1172 153° Southeast 159 183 7,500  Level Boston Center
08:09AM 43.3553 -74.0992 160° South 166 191 7,500  Level Boston Center
08:09AM 43.3533 -74.0992 180° South 159 183 7,500 -120 Level Boston Center
08:10AM 43.3139 -74.0781 159° South 166 191 7,400 -120 Descending Boston Center
08:10AM 43.3119 -74.0781 180° South 162 186 7,400 -360 Level Boston Center
08:11AM 43.2706 -74.0569 160° South 166 191 7,100 -420 Descending Boston Center
08:11AM 43.2642 -74.0567 178° South 174 200 7,000 -120 Descending Boston Center
08:12AM 43.2247 -74.0442 167° South 166 191 7,000  Level Boston Center
08:12AM 43.2144 -74.0469 191° South 171 197 7,000  Level Boston Center
08:13AM 43.1769 -74.0431 176° South 166 191 7,000  Level Boston Center
08:13AM 43.1664 -74.0456 190° South 166 191 7,000  Level Boston Center
08:14AM 43.1228 -74.0417 176° South 166 191 7,000  Level Boston Center
08:15AM 43.1164 -74.0442 196° South 164 189 7,000  Level Boston Center
08:15AM 43.0811 -74.0433 179° South 166 191 7,000  Level Boston Center
08:15AM 43.0747 -74.0431 178° South 162 186 7,000  Level Boston Center
08:16AM 43.0311 -74.0419 179° South 162 186 7,000  Level Boston Center
08:17AM 42.9914 -74.0411 179° South 161 185 7,000  Level Boston Center
08:17AM 42.9853 -74.0436 197° South 161 185 7,000 -120 Level Boston Center
08:18AM 42.9436 -74.0425 179° South 161 185 6,900 -120 Descending Boston Center
08:18AM 42.9436 -74.0425 179° South 159 183 6,900 -420 Level Boston Center
08:19AM 42.9039 -74.0417 179° South 161 185 6,500 -540 Descending Boston Center
08:19AM 42.8978 -74.0414 178° South 159 183 6,400 -660 Descending Boston Center
08:20AM 42.8539 -74.0403 179° South 161 185 5,900 -600 Descending Boston Center
08:20AM 42.8478 -74.0400 178° South 163 188 5,800 -540 Descending Boston Center
08:21AM 42.8103 -74.0392 179° South 161 185 5,400 -540 Descending Boston Center
08:21AM 42.8039 -74.0389 178° South 163 188 5,300 -300 Descending Boston Center
08:23AM 42.7622 -74.0350 176° South 158 182 5,100 -120 Descending Boston Center
08:24AM 42.7206 -74.0369 182° South 138 159 5,100  Level Boston Center
08:25AM 42.6853 -74.0331 175° South 134 154 5,100  Level Boston Center
08:26AM 42.6436 -74.0292 176° South 133 153 5,100  Level Boston Center
08:27AM 42.6189 -74.0003 139° Southeast 128 147 5,100  Level Boston Center
08:28AM 42.6008 -73.9575 120° Southeast 127 146 5,100  Level Boston Center
08:29AM 42.5908 -73.9122 107° East 129 148 5,100  Level Boston Center
08:30AM 42.5747 -73.8667 116° Southeast 130 150 5,100  Level Boston Center
08:31AM 42.5589 -73.8183 114° Southeast 129 148 5,100  Level Boston Center
08:32AM 42.5383 -73.7786 125° Southeast 131 151 5,100  Level Boston Center
08:33AM 42.5133 -73.7781 179° South 145 167 5,100  Level Boston Center
08:34AM 42.5444 -73.7956 337° Northwest 138 159 5,100  Level Boston Center
08:35AM 42.5633 -73.7764 37° Northeast 127 146 5,100  Level Boston Center
08:36AM 42.5219 -73.7614 165° South 130 150 5,100  Level Boston Center
08:37AM 42.4867 -73.7578 176° South 134 154 5,100  Level Boston Center
08:38AM 42.4450 -73.7511 173° South 135 155 5,100  Level Boston Center
08:39AM 42.4136 -73.7533 183° South 136 157 5,100  Level Boston Center
08:40AM 42.3864 -73.7781 214° Southwest 145 167 5,100  Level Boston Center
08:41AM 42.4214 -73.7958 339° North 137 158 5,100  Level Boston Center
08:42AM 42.4589 -73.8050 350° North 137 158 5,100  Level Boston Center
08:43AM 42.4944 -73.8000 North 137 158 5,100  Level Boston Center
08:44AM 42.5381 -73.8011 359° North 138 159 5,100  Level Boston Center
08:45AM 42.5531 -73.7761 51° Northeast 131 151 5,100  Level Boston Center
08:46AM 42.5197 -73.7669 169° South 130 150 5,100  Level Boston Center
08:47AM 42.4822 -73.7661 179° South 134 154 5,100  Level Boston Center
08:48AM 42.4450 -73.7569 170° South 135 155 5,100  Level Boston Center
08:49AM 42.4094 -73.7533 176° South 136 157 5,100  Level Boston Center
08:50AM 42.3986 -73.7811 242° Southwest 147 169 5,100  Level Boston Center
08:51AM 42.4361 -73.7961 344° North 139 160 5,100  Level Boston Center
08:52AM 42.4778 -73.8025 354° North 139 160 5,100  Level Boston Center
08:53AM 42.5153 -73.7978 North 139 160 5,100  Level Boston Center
08:54AM 42.5528 -73.7900 North 141 162 5,100  Level Boston Center
08:55AM 42.5261 -73.7669 147° Southeast 131 151 5,100  Level Boston Center
08:56AM 42.4886 -73.7606 173° South 135 155 5,100  Level Boston Center
08:57AM 42.4533 -73.7514 169° South 135 155 5,100  Level Boston Center
08:58AM 42.4136 -73.7506 179° South 136 157 5,100  Level Boston Center
08:59AM 42.3761 -73.7525 182° South 140 161 5,100  Level Boston Center
09:00AM 42.3986 -73.7839 314° West 138 159 5,100  Level Boston Center
09:01AM 42.4361 -73.7961 346° North 136 157 5,100  Level Boston Center
09:02AM 42.4736 -73.7969 359° North 137 158 5,100  Level Boston Center
09:03AM 42.5111 -73.8006 356° North 138 159 5,100  Level Boston Center
09:04AM 42.5486 -73.7983 North 137 158 5,100  Level Boston Center
09:05AM 42.5344 -73.7700 124° Southeast 129 148 5,100  Level Boston Center
09:06AM 42.4969 -73.7608 170° South 131 151 5,100  Level Boston Center
09:07AM 42.4594 -73.7572 176° South 133 153 5,100  Level Boston Center
09:08AM 42.4200 -73.7478 170° South 134 154 5,100  Level Boston Center
09:09AM 42.3847 -73.7414 172° South 134 154 5,100  Level Boston Center
09:10AM 42.3883 -73.7725 279° West 138 159 5,100  Level Boston Center
09:11AM 42.4258 -73.7872 344° North 135 155 5,100  Level Boston Center
09:12AM 42.4589 -73.7936 352° North 136 157 5,100  Level Boston Center
09:13AM 42.4967 -73.7944 359° North 138 159 5,100  Level Boston Center
09:14AM 42.5361 -73.7981 356° North 138 159 5,100  Level Boston Center
09:15AM 42.5511 -73.7731 51° Northeast 131 151 5,100 -180 Level Boston Center
09:16AM 42.5242 -73.7417 139° Southeast 135 155 4,800 -300 Descending Boston Center
09:17AM 42.4847 -73.7267 164° South 161 185 4,500 -540 Descending Boston Center
09:18AM 42.4553 -73.7542 215° Southwest 176 203 3,800 -600 Descending Boston Center
09:19AM 42.4967 -73.7889 328° Northwest 171 197 3,300 -420 Descending Boston Center
09:20AM 42.5403 -73.8011 348° North 159 183 3,000 -240 Descending Boston Center
09:21AM 42.5819 -73.8019 359° North 142 163 2,900 -360 Descending Boston Center
09:22AM 42.6278 -73.8003 North 163 188 2,300 -600 Descending Boston Center
09:23AM 42.6672 -73.8039 356° North 150 173 1,800 -660 Descending Boston Center
09:24AM 42.7069 -73.8047 359° North 108 124 1,000 -780 Descending Boston Center